| Record Date MM/DD/YYYY | Record Time HH:MM:SS | Record Julian Date NNN day of the year | Air Temperature Max (Degrees Fahrenheit F) | Time Max Air Temperature HH:MM:SS This is the time of max air temp for the prior hour interval listed for record [Time]. | Air Temperature Min (Degrees Fahrenheit F) | Time Min Air Temperature HH:MM:SS This is the time of min air temp for the prior hour interval listed for record [Time]. | Air Temperature Observed (Degrees Fahrenheit F) This is an instantaneous reading at the record [Time]. | Relative Humidity Max (Percent) | Time Max Relative Humidity HH:MM:SS This is the time of max relative humidity for the prior hour interval listed for record [Time]. | Relative Humidity Min (Percent) | Time Min Relative Humidity HH:MM:SS This is the time of min relative humidity for the prior hour interval listed for record [Time]. | Relative Humidity Observed (Percent) This is an instantaneous reading at the record [Time]. | Precipitation (Inches n.nn) rain fall that occurred during the prior hour interval listed for record [Time]. | Wind Speed (Miles Per Hour) Resultant Speed that occurred during the prior hour interval listed for record [Time]. | Wind Direction (Degrees) Resultant Direction that occurred during the prior hour interval listed for record [Time]. | Solar Radiation (Langley's) that occurred during the prior hour interval listed for record [Time]. | Soil Temperature Average at 2 inch depth (Degrees Fahrenheit F) that occurred during the prior hour interval listed for record [Time]. | Soil Temperature Observed at 2 inch depth (Degrees Fahrenheit F) This is an instantaneous reading at the record [Time]. | Soil Temperature Average at 4 inch depth (Degrees Fahrenheit F) that occurred during the prior hour interval listed for record [Time]. | Soil Temperature Observed at 4 inch depth (Degrees Fahrenheit F) This is an instantaneous reading at the record [Time]. |
|---|---|---|---|---|---|---|---|---|---|---|---|---|---|---|---|---|---|---|---|---|
| 05/03/2026 | 0:00:00 | 123 | 56 | 23:00:01 | 54 | 23:59:01 | 54 | 66 | 23:59:00 | 60 | 23:00:04 | 65.51 | 0 | 7.9 | 59 | 0 | 58 | 57 | 63 | 62 |
| 05/03/2026 | 1:00:00 | 123 | 55 | 0:02:04 | 54 | 0:56:05 | 54 | 68 | 0:59:01 | 64 | 0:02:00 | 67.53 | 0 | 8.9 | 64 | 0 | 57 | 57 | 62 | 61 |
| 05/03/2026 | 2:00:00 | 123 | 54 | 1:07:03 | 49 | 1:59:05 | 49 | 79 | 2:00:00 | 67 | 1:06:03 | 78.57 | 0 | 5.6 | 92 | 0 | 56 | 56 | 61 | 60 |
| 05/03/2026 | 3:00:00 | 123 | 49 | 2:37:01 | 47 | 2:58:05 | 47 | 84 | 3:00:00 | 79 | 2:00:02 | 84.4 | 0 | 1.7 | 152 | 0 | 55 | 55 | 60 | 60 |
| 05/03/2026 | 4:00:00 | 123 | 48 | 3:13:00 | 46 | 3:47:05 | 46 | 87 | 3:51:03 | 82 | 3:14:05 | 84.8 | 0 | 1.6 | 135 | 0 | 54 | 54 | 59 | 59 |
| 05/03/2026 | 5:00:00 | 123 | 46 | 4:00:01 | 44 | 4:58:04 | 44 | 90 | 4:59:05 | 85 | 4:00:01 | 90 | 0 | 1.3 | 152 | 0 | 54 | 53 | 59 | 58 |
| 05/03/2026 | 6:00:00 | 123 | 50 | 5:59:04 | 44 | 5:16:03 | 50 | 93 | 5:21:04 | 85 | 5:59:00 | 85.1 | 0 | 1.3 | 125 | 5 | 53 | 53 | 58 | 58 |
| 05/03/2026 | 7:00:00 | 123 | 55 | 7:00:00 | 50 | 6:00:01 | 55 | 85 | 6:00:01 | 72 | 6:56:00 | 73.51 | 0 | 4.1 | 145 | 21 | 54 | 56 | 58 | 58 |
| 05/03/2026 | 8:00:00 | 123 | 60 | 7:59:00 | 55 | 7:01:04 | 60 | 74 | 7:02:03 | 56 | 7:59:05 | 55.91 | 0 | 6.4 | 154 | 39 | 58 | 60 | 58 | 59 |
| 05/03/2026 | 9:00:00 | 123 | 66 | 8:59:00 | 60 | 8:12:03 | 65 | 59 | 8:13:04 | 45 | 8:59:05 | 45.45 | 0 | 7.3 | 147 | 56 | 62 | 65 | 60 | 61 |
| 05/03/2026 | 10:00:00 | 123 | 69 | 10:00:00 | 65 | 9:01:02 | 69 | 49 | 9:01:02 | 41 | 9:54:00 | 43.42 | 0 | 7.2 | 162 | 69 | 67 | 70 | 62 | 63 |
| 05/03/2026 | 11:00:00 | 123 | 72 | 10:52:02 | 69 | 10:03:04 | 72 | 44 | 10:03:05 | 36 | 10:44:02 | 37.68 | 0 | 6.4 | 175 | 79 | 72 | 75 | 65 | 66 |
| 05/03/2026 | 12:00:00 | 123 | 75 | 11:55:03 | 71 | 11:05:03 | 74 | 41 | 11:30:04 | 33 | 11:50:03 | 36.55 | 0 | 6.9 | 191 | 83 | 77 | 79 | 68 | 69 |
| 05/03/2026 | 13:00:00 | 123 | 75 | 12:23:02 | 73 | 12:02:04 | 74 | 38 | 12:02:03 | 30 | 12:43:00 | 30.8 | 0 | 6.4 | 226 | 82 | 81 | 82 | 71 | 72 |
| 05/03/2026 | 14:00:00 | 123 | 76 | 13:56:00 | 74 | 13:04:01 | 75 | 36 | 13:48:01 | 29 | 13:07:04 | 33.25 | 0 | 6.3 | 255 | 76 | 83 | 84 | 73 | 75 |
| 05/03/2026 | 15:00:00 | 123 | 77 | 15:00:00 | 76 | 14:00:01 | 77 | 35 | 14:18:04 | 30 | 14:58:03 | 30.27 | 0 | 6.3 | 247 | 65 | 85 | 85 | 75 | 76 |
| 05/03/2026 | 16:00:00 | 123 | 78 | 15:13:00 | 76 | 15:19:04 | 77 | 35 | 15:44:01 | 28 | 15:05:00 | 31.29 | 0 | 6.0 | 259 | 51 | 84 | 84 | 77 | 77 |
| 05/03/2026 | 17:00:00 | 123 | 78 | 16:15:03 | 76 | 16:02:02 | 77 | 36 | 16:59:05 | 30 | 16:01:04 | 34.76 | 0 | 6.4 | 250 | 34 | 82 | 81 | 77 | 77 |
| 05/03/2026 | 18:00:00 | 123 | 77 | 17:23:02 | 74 | 17:59:04 | 74 | 38 | 17:58:05 | 33 | 17:26:01 | 37.36 | 0 | 5.5 | 239 | 16 | 79 | 77 | 77 | 76 |
| 05/03/2026 | 19:00:00 | 123 | 74 | 18:00:01 | 65 | 19:00:00 | 65 | 57 | 19:00:00 | 38 | 18:00:01 | 56.76 | 0 | 2.5 | 212 | 1 | 75 | 73 | 75 | 74 |
| 05/03/2026 | 20:00:00 | 123 | 65 | 19:00:01 | 60 | 19:58:01 | 60 | 72 | 19:56:05 | 57 | 19:00:01 | 69.6 | 0 | 1.9 | 142 | 0 | 71 | 70 | 73 | 72 |
| 05/03/2026 | 21:00:00 | 123 | 61 | 20:16:04 | 58 | 21:00:00 | 58 | 75 | 21:00:00 | 68 | 20:16:04 | 75.43 | 0 | 2.4 | 146 | 0 | 68 | 67 | 71 | 70 |
| 05/03/2026 | 22:00:00 | 123 | 58 | 21:00:01 | 56 | 21:31:04 | 56 | 80 | 21:38:05 | 75 | 21:00:01 | 79.16 | 0 | 2.3 | 148 | 0 | 66 | 65 | 70 | 69 |
| 05/03/2026 | 23:00:00 | 123 | 56 | 22:00:02 | 55 | 22:47:02 | 56 | 83 | 22:48:04 | 79 | 22:00:01 | 80.8 | 0 | 2.5 | 142 | 0 | 65 | 64 | 68 | 68 |
| 05/04/2026 | 0:00:00 | 124 | 57 | 23:36:00 | 56 | 23:00:03 | 56 | 82 | 23:59:04 | 80 | 23:15:02 | 81.6 | 0 | 3.3 | 127 | 0 | 63 | 63 | 67 | 67 |
| 05/04/2026 | 1:00:00 | 124 | 57 | 0:57:02 | 56 | 0:00:02 | 57 | 82 | 0:40:02 | 81 | 0:08:01 | 81.1 | 0 | 3.2 | 127 | 0 | 62 | 62 | 66 | 66 |
| 05/04/2026 | 2:00:00 | 124 | 57 | 1:00:01 | 55 | 1:59:03 | 56 | 85 | 2:00:00 | 81 | 1:01:01 | 85.1 | 0 | 2.6 | 134 | 0 | 62 | 61 | 65 | 65 |
| 05/04/2026 | 3:00:00 | 124 | 56 | 3:00:00 | 55 | 2:22:01 | 56 | 86 | 2:23:04 | 85 | 2:04:05 | 85.5 | 0 | 2.8 | 132 | 0 | 61 | 61 | 65 | 64 |
| 05/04/2026 | 4:00:00 | 124 | 56 | 3:11:00 | 55 | 3:40:01 | 55 | 86 | 3:41:03 | 85 | 3:12:01 | 86.1 | 0 | 3.2 | 133 | 0 | 60 | 60 | 64 | 64 |
| 05/04/2026 | 5:00:00 | 124 | 55 | 4:00:02 | 54 | 4:55:03 | 54 | 89 | 4:58:05 | 86 | 4:00:01 | 88.7 | 0 | 3.4 | 137 | 0 | 60 | 59 | 63 | 63 |
| 05/04/2026 | 6:00:00 | 124 | 57 | 6:00:00 | 54 | 5:13:05 | 57 | 89 | 5:18:02 | 88 | 5:32:00 | 87.7 | 0 | 3.1 | 128 | 3 | 59 | 59 | 63 | 62 |
| 05/04/2026 | 7:00:00 | 124 | 62 | 6:59:04 | 57 | 6:00:01 | 62 | 88 | 6:00:02 | 78 | 7:00:00 | 78.12 | 0 | 4.3 | 142 | 15 | 60 | 61 | 62 | 62 |
| 05/04/2026 | 8:00:00 | 124 | 69 | 7:59:05 | 62 | 7:00:01 | 69 | 78 | 7:02:00 | 63 | 7:56:05 | 64.13 | 0 | 5.7 | 184 | 36 | 63 | 65 | 63 | 63 |
| 05/04/2026 | 9:00:00 | 124 | 74 | 8:58:03 | 69 | 8:10:03 | 73 | 64 | 8:03:03 | 53 | 8:59:02 | 54.24 | 0 | 6.8 | 213 | 50 | 68 | 70 | 64 | 65 |
| 05/04/2026 | 10:00:00 | 124 | 77 | 9:58:03 | 73 | 9:00:01 | 77 | 55 | 9:02:01 | 47 | 9:59:03 | 49.86 | 0 | 8.7 | 215 | 69 | 73 | 76 | 67 | 68 |
| 05/04/2026 | 11:00:00 | 124 | 81 | 10:50:01 | 77 | 10:00:01 | 80 | 51 | 10:00:03 | 38 | 10:59:04 | 39.3 | 0 | 10.0 | 216 | 78 | 78 | 80 | 70 | 71 |
| 05/04/2026 | 12:00:00 | 124 | 83 | 11:27:02 | 80 | 11:04:05 | 81 | 41 | 11:13:03 | 33 | 11:57:05 | 35.15 | 0 | 11.8 | 220 | 82 | 82 | 84 | 73 | 74 |
| 05/04/2026 | 13:00:00 | 124 | 84 | 12:58:00 | 80 | 12:08:05 | 83 | 37 | 12:11:03 | 32 | 12:59:04 | 32.52 | 0 | 13.4 | 220 | 81 | 85 | 86 | 75 | 76 |
| 05/04/2026 | 14:00:00 | 124 | 83 | 13:02:01 | 82 | 13:06:04 | 82 | 36 | 13:07:02 | 31 | 13:39:04 | 33.07 | 0 | 13.8 | 216 | 75 | 86 | 86 | 77 | 78 |
| 05/04/2026 | 15:00:00 | 124 | 84 | 14:31:02 | 81 | 14:39:03 | 82 | 37 | 14:52:05 | 32 | 14:03:04 | 34.85 | 0 | 13.8 | 208 | 64 | 86 | 86 | 78 | 79 |
| 05/04/2026 | 16:00:00 | 124 | 82 | 15:14:04 | 80 | 15:56:01 | 80 | 38 | 15:54:02 | 34 | 15:01:01 | 36.16 | 0 | 14.2 | 217 | 49 | 85 | 85 | 79 | 79 |
| 05/04/2026 | 17:00:00 | 124 | 81 | 16:07:03 | 78 | 16:27:03 | 79 | 39 | 16:37:04 | 35 | 16:08:01 | 38.19 | 0 | 13.3 | 212 | 29 | 83 | 82 | 79 | 79 |
| 05/04/2026 | 18:00:00 | 124 | 79 | 17:00:04 | 75 | 17:59:05 | 75 | 43 | 17:58:02 | 38 | 17:04:03 | 43.01 | 0 | 11.2 | 216 | 13 | 80 | 78 | 78 | 78 |
| 05/04/2026 | 19:00:00 | 124 | 75 | 18:00:01 | 70 | 18:59:05 | 70 | 54 | 19:00:00 | 43 | 18:01:02 | 54.35 | 0 | 6.6 | 200 | 2 | 77 | 75 | 77 | 76 |
| 05/04/2026 | 20:00:00 | 124 | 70 | 19:00:01 | 65 | 20:00:00 | 65 | 66 | 20:00:00 | 54 | 19:00:03 | 66.26 | 0 | 4.2 | 183 | 0 | 74 | 72 | 75 | 74 |
| 05/04/2026 | 21:00:00 | 124 | 65 | 20:00:01 | 62 | 20:56:01 | 62 | 76 | 20:55:05 | 66 | 20:00:01 | 74.78 | 0 | 2.6 | 143 | 0 | 71 | 70 | 74 | 73 |
| 05/04/2026 | 22:00:00 | 124 | 63 | 21:11:04 | 61 | 22:00:00 | 61 | 78 | 22:00:00 | 74 | 21:09:05 | 78 | 0 | 2.8 | 146 | 0 | 70 | 69 | 72 | 72 |
| 05/04/2026 | 23:00:00 | 124 | 61 | 22:00:01 | 59 | 22:50:00 | 59 | 82 | 22:50:03 | 78 | 22:00:01 | 81.3 | 0 | 2.8 | 142 | 0 | 68 | 67 | 71 | 70 |
| 05/05/2026 | 0:00:00 | 125 | 59 | 23:00:05 | 59 | 23:58:03 | 59 | 83 | 23:59:04 | 81 | 23:01:01 | 82.6 | 0 | 2.8 | 138 | 0 | 67 | 66 | 70 | 69 |
| 05/05/2026 | 1:00:00 | 125 | 59 | 1:00:00 | 58 | 0:15:03 | 59 | 84 | 0:18:01 | 82 | 0:48:02 | 82.1 | 0 | 3.0 | 135 | 0 | 66 | 65 | 69 | 68 |
| 05/05/2026 | 2:00:00 | 125 | 62 | 1:55:04 | 59 | 1:17:03 | 62 | 84 | 1:40:02 | 78 | 1:56:01 | 77.78 | 0 | 3.8 | 153 | 0 | 65 | 65 | 68 | 68 |
| 05/05/2026 | 3:00:00 | 125 | 62 | 2:26:02 | 62 | 2:44:02 | 62 | 78 | 2:48:04 | 77 | 2:26:01 | 77.78 | 0 | 5.4 | 171 | 0 | 65 | 65 | 67 | 67 |
| 05/05/2026 | 4:00:00 | 125 | 62 | 3:00:01 | 60 | 3:59:03 | 60 | 81 | 4:00:00 | 78 | 3:00:01 | 80.7 | 0 | 6.0 | 173 | 0 | 64 | 64 | 67 | 67 |
| 05/05/2026 | 5:00:00 | 125 | 60 | 4:01:01 | 60 | 5:00:00 | 60 | 83 | 5:00:00 | 81 | 4:01:02 | 82.5 | 0 | 5.5 | 172 | 0 | 64 | 63 | 66 | 66 |
| 05/05/2026 | 6:00:00 | 125 | 61 | 5:55:03 | 59 | 5:08:03 | 61 | 84 | 5:15:04 | 80 | 5:54:00 | 80.6 | 0 | 4.4 | 165 | 2 | 63 | 63 | 66 | 66 |
| 05/05/2026 | 7:00:00 | 125 | 64 | 6:59:04 | 61 | 6:00:03 | 64 | 81 | 6:00:01 | 76 | 6:58:04 | 76.74 | 0 | 5.6 | 164 | 7 | 64 | 64 | 66 | 66 |
| 05/05/2026 | 8:00:00 | 125 | 65 | 7:59:03 | 64 | 7:00:01 | 65 | 77 | 7:00:01 | 75 | 7:57:05 | 75.16 | 0 | 6.4 | 166 | 6 | 65 | 65 | 66 | 66 |
| 05/05/2026 | 9:00:00 | 125 | 67 | 8:55:05 | 65 | 8:00:04 | 67 | 76 | 8:39:02 | 73 | 8:59:04 | 73.13 | 0 | 8.5 | 167 | 14 | 66 | 67 | 66 | 66 |
| 05/05/2026 | 10:00:00 | 125 | 68 | 9:25:05 | 66 | 9:41:02 | 67 | 79 | 9:45:01 | 73 | 9:00:02 | 76.6 | 0 | 10.6 | 163 | 16 | 67 | 68 | 67 | 67 |
| 05/05/2026 | 11:00:00 | 125 | 70 | 10:59:05 | 67 | 10:01:05 | 70 | 77 | 10:03:00 | 74 | 10:32:04 | 74.97 | 0 | 10.5 | 165 | 18 | 68 | 69 | 67 | 68 |
| 05/05/2026 | 12:00:00 | 125 | 72 | 11:31:03 | 70 | 11:07:01 | 72 | 75 | 11:55:02 | 73 | 11:28:01 | 75 | 0 | 10.9 | 170 | 16 | 70 | 70 | 68 | 68 |
| 05/05/2026 | 13:00:00 | 125 | 72 | 12:38:01 | 70 | 12:47:03 | 71 | 81 | 12:50:01 | 75 | 12:00:04 | 79.07 | 0 | 10.8 | 180 | 9 | 70 | 70 | 69 | 69 |
| 05/05/2026 | 14:00:00 | 125 | 73 | 14:00:00 | 69 | 13:15:05 | 73 | 87 | 13:15:04 | 77 | 14:00:00 | 77.27 | 0 | 9.9 | 184 | 14 | 70 | 70 | 69 | 69 |
| 05/05/2026 | 15:00:00 | 125 | 75 | 14:57:04 | 73 | 14:07:00 | 75 | 77 | 14:00:01 | 72 | 14:58:02 | 71.91 | 0 | 11.5 | 181 | 17 | 71 | 71 | 69 | 69 |
| 05/05/2026 | 16:00:00 | 125 | 76 | 15:15:01 | 74 | 15:47:01 | 74 | 75 | 16:00:00 | 71 | 15:16:00 | 74.7 | 0 | 12.1 | 190 | 11 | 72 | 72 | 70 | 70 |
| 05/05/2026 | 17:00:00 | 125 | 74 | 16:00:01 | 71 | 16:35:03 | 72 | 85 | 16:35:01 | 75 | 16:02:01 | 83.6 | 0 | 10.8 | 190 | 3 | 71 | 70 | 70 | 70 |
| 05/05/2026 | 18:00:00 | 125 | 72 | 17:53:00 | 72 | 17:02:00 | 72 | 84 | 17:01:00 | 83 | 17:58:01 | 82.5 | 0 | 8.6 | 176 | 4 | 70 | 70 | 70 | 70 |
| 05/05/2026 | 19:00:00 | 125 | 72 | 18:00:04 | 71 | 18:58:02 | 71 | 83 | 18:01:05 | 82 | 18:42:03 | 82.6 | 0 | 6.2 | 165 | 1 | 70 | 70 | 70 | 69 |
| 05/05/2026 | 20:00:00 | 125 | 72 | 19:56:01 | 71 | 19:38:00 | 72 | 84 | 19:38:03 | 81 | 19:56:05 | 81.6 | 0 | 5.1 | 157 | 0 | 69 | 69 | 69 | 69 |
| 05/05/2026 | 21:00:00 | 125 | 72 | 20:34:04 | 71 | 20:19:02 | 71 | 83 | 20:18:01 | 81 | 20:34:02 | 82.4 | 0 | 4.5 | 166 | 0 | 69 | 69 | 69 | 69 |
| 05/05/2026 | 22:00:00 | 125 | 72 | 21:06:00 | 71 | 21:37:04 | 71 | 83 | 21:43:00 | 82 | 21:08:01 | 83.2 | 0 | 5.3 | 168 | 0 | 69 | 69 | 69 | 69 |
| 05/05/2026 | 23:00:00 | 125 | 73 | 22:49:05 | 71 | 22:00:03 | 73 | 84 | 22:25:04 | 82 | 22:51:04 | 82.2 | 0 | 6.0 | 179 | 0 | 69 | 69 | 69 | 69 |
| 05/06/2026 | 0:00:00 | 126 | 75 | 23:59:00 | 73 | 23:00:01 | 75 | 82 | 23:09:00 | 81 | 23:40:00 | 81 | 0 | 8.9 | 202 | 0 | 69 | 69 | 69 | 69 |
| 05/06/2026 | 1:00:00 | 126 | 75 | 0:01:04 | 74 | 0:59:03 | 74 | 82 | 1:00:00 | 81 | 0:02:03 | 82.3 | 0 | 10.5 | 208 | 0 | 69 | 69 | 69 | 69 |
| 05/06/2026 | 2:00:00 | 126 | 74 | 1:03:02 | 74 | 1:47:01 | 74 | 85 | 2:00:00 | 82 | 1:04:03 | 84.9 | 0 | 10.3 | 208 | 0 | 70 | 70 | 69 | 69 |
| 05/06/2026 | 3:00:00 | 126 | 75 | 2:10:01 | 59 | 3:00:00 | 59 | 93 | 2:55:04 | 71 | 2:29:00 | 92.2 | 0.03 | 10.7 | 287 | 0 | 69 | 68 | 69 | 69 |
| 05/06/2026 | 4:00:00 | 126 | 59 | 3:00:01 | 56 | 3:59:02 | 56 | 95 | 3:36:03 | 92 | 3:00:01 | 94.6 | 0.03 | 8.1 | 355 | 0 | 67 | 65 | 69 | 68 |
| 05/06/2026 | 5:00:00 | 126 | 57 | 4:26:00 | 55 | 4:46:05 | 56 | 97 | 4:58:01 | 94 | 4:29:03 | 97.3 | 0.36 | 6.5 | 7 | 0 | 65 | 63 | 68 | 67 |
| 05/06/2026 | 6:00:00 | 126 | 57 | 5:23:01 | 55 | 5:59:04 | 55 | 98 | 5:39:01 | 97 | 5:49:05 | 97.3 | 0.01 | 3.2 | 314 | 1 | 63 | 63 | 66 | 66 |
| 05/06/2026 | 7:00:00 | 126 | 57 | 6:32:02 | 55 | 6:04:05 | 57 | 98 | 6:16:02 | 97 | 6:54:01 | 96.7 | 0 | 5.0 | 359 | 3 | 63 | 63 | 66 | 65 |
| 05/06/2026 | 8:00:00 | 126 | 57 | 7:09:05 | 56 | 7:55:05 | 56 | 97 | 7:04:02 | 95 | 7:48:05 | 96.2 | 0.01 | 6.6 | 3 | 6 | 63 | 63 | 65 | 65 |
| 05/06/2026 | 9:00:00 | 126 | 57 | 8:16:02 | 55 | 8:42:01 | 56 | 97 | 8:05:05 | 94 | 8:20:03 | 95.9 | 0.13 | 7.9 | 5 | 11 | 63 | 63 | 65 | 65 |
| 05/06/2026 | 10:00:00 | 126 | 56 | 9:49:00 | 56 | 9:14:02 | 56 | 96 | 9:05:05 | 93 | 9:55:01 | 93.2 | 0 | 6.7 | 7 | 12 | 64 | 64 | 65 | 65 |
| 05/06/2026 | 11:00:00 | 126 | 56 | 10:00:05 | 55 | 10:58:04 | 55 | 95 | 10:41:00 | 93 | 10:00:01 | 94.4 | 0 | 8.1 | 351 | 11 | 64 | 64 | 65 | 65 |
| 05/06/2026 | 12:00:00 | 126 | 56 | 11:54:02 | 55 | 11:03:00 | 56 | 95 | 11:45:00 | 93 | 11:19:03 | 93.2 | 0 | 7.2 | 4 | 16 | 64 | 64 | 65 | 65 |
| 05/06/2026 | 13:00:00 | 126 | 56 | 12:50:04 | 55 | 12:12:04 | 56 | 95 | 12:29:03 | 92 | 12:51:03 | 93.6 | 0 | 6.6 | 349 | 15 | 64 | 64 | 65 | 65 |
| 05/06/2026 | 14:00:00 | 126 | 56 | 13:04:03 | 55 | 13:58:03 | 55 | 94 | 13:35:03 | 92 | 13:58:03 | 91.8 | 0 | 9.3 | 347 | 9 | 64 | 63 | 65 | 65 |
| 05/06/2026 | 15:00:00 | 126 | 55 | 14:59:04 | 54 | 14:34:02 | 55 | 94 | 14:59:03 | 92 | 14:26:03 | 93.9 | 0.02 | 7.3 | 15 | 9 | 63 | 62 | 65 | 64 |
| 05/06/2026 | 16:00:00 | 126 | 57 | 15:34:03 | 55 | 15:00:04 | 56 | 95 | 15:06:03 | 91 | 15:32:04 | 91.4 | 0 | 7.3 | 30 | 22 | 64 | 64 | 64 | 64 |
| 05/06/2026 | 17:00:00 | 126 | 56 | 16:28:01 | 56 | 16:02:05 | 56 | 93 | 16:28:01 | 91 | 16:05:03 | 91.9 | 0 | 6.1 | 20 | 6 | 63 | 63 | 64 | 64 |
| 05/06/2026 | 18:00:00 | 126 | 56 | 17:13:01 | 56 | 17:51:01 | 56 | 93 | 17:54:04 | 91 | 17:03:01 | 92.9 | 0 | 6.6 | 16 | 2 | 63 | 62 | 64 | 64 |
| 05/06/2026 | 19:00:00 | 126 | 56 | 18:03:03 | 56 | 18:39:04 | 56 | 93 | 18:33:00 | 91 | 18:59:03 | 91.5 | 0 | 7.0 | 17 | 0 | 62 | 61 | 64 | 63 |
| 05/06/2026 | 20:00:00 | 126 | 56 | 19:00:05 | 55 | 19:58:00 | 55 | 92 | 19:34:00 | 91 | 19:47:02 | 91.4 | 0 | 6.7 | 27 | 0 | 61 | 60 | 63 | 63 |
| 05/06/2026 | 21:00:00 | 126 | 55 | 20:59:01 | 55 | 20:21:03 | 55 | 92 | 20:29:00 | 90 | 20:58:04 | 89.9 | 0 | 6.8 | 15 | 0 | 60 | 60 | 63 | 62 |
| 05/06/2026 | 22:00:00 | 126 | 56 | 21:01:00 | 55 | 21:58:04 | 55 | 92 | 22:00:00 | 90 | 21:00:01 | 92.2 | 0 | 5.8 | 16 | 0 | 60 | 60 | 62 | 62 |
| 05/06/2026 | 23:00:00 | 126 | 55 | 22:59:03 | 55 | 22:21:04 | 55 | 92 | 22:00:01 | 90 | 22:58:03 | 89.8 | 0 | 6.1 | 22 | 0 | 59 | 59 | 62 | 62 |
| 05/07/2026 | 0:00:00 | 127 | 55 | 23:00:02 | 54 | 23:52:02 | 54 | 93 | 23:56:01 | 90 | 23:00:02 | 92.1 | 0 | 4.9 | 13 | 0 | 59 | 59 | 62 | 61 |
| 05/07/2026 | 1:00:00 | 127 | 55 | 0:00:05 | 54 | 0:31:02 | 54 | 94 | 0:46:03 | 92 | 0:00:05 | 93.5 | 0 | 3.4 | 1 | 0 | 59 | 59 | 61 | 61 |
| 05/07/2026 | 2:00:00 | 127 | 54 | 1:10:04 | 54 | 1:38:03 | 54 | 94 | 1:14:00 | 93 | 1:44:03 | 92.7 | 0 | 3.9 | 352 | 0 | 59 | 59 | 61 | 61 |
| 05/07/2026 | 3:00:00 | 127 | 54 | 2:08:04 | 53 | 2:58:02 | 53 | 94 | 2:42:04 | 93 | 2:13:04 | 93.6 | 0 | 3.5 | 340 | 0 | 58 | 58 | 61 | 61 |
| 05/07/2026 | 4:00:00 | 127 | 54 | 3:04:05 | 53 | 3:58:04 | 53 | 95 | 4:00:00 | 94 | 3:08:00 | 95.4 | 0 | 3.6 | 339 | 0 | 58 | 57 | 60 | 60 |
| 05/07/2026 | 5:00:00 | 127 | 53 | 4:00:01 | 52 | 4:44:00 | 52 | 96 | 4:28:04 | 94 | 5:00:00 | 93.8 | 0 | 4.5 | 341 | 0 | 57 | 57 | 60 | 60 |
| 05/07/2026 | 6:00:00 | 127 | 53 | 5:59:04 | 52 | 5:28:03 | 53 | 94 | 5:30:00 | 92 | 5:59:04 | 91.7 | 0 | 4.3 | 349 | 4 | 56 | 56 | 59 | 59 |
| 05/07/2026 | 7:00:00 | 127 | 56 | 6:59:00 | 53 | 6:01:02 | 56 | 92 | 6:00:02 | 83 | 6:56:00 | 83.6 | 0 | 5.0 | 5 | 21 | 57 | 58 | 59 | 59 |
| 05/07/2026 | 8:00:00 | 127 | 60 | 7:59:04 | 56 | 7:04:05 | 60 | 83 | 7:11:01 | 72 | 7:54:04 | 72.97 | 0 | 7.0 | 13 | 39 | 59 | 61 | 59 | 60 |
| 05/07/2026 | 9:00:00 | 127 | 63 | 8:59:05 | 60 | 8:08:02 | 63 | 76 | 8:01:00 | 64 | 8:50:03 | 64.7 | 0 | 8.4 | 17 | 56 | 63 | 65 | 61 | 62 |
| 05/07/2026 | 10:00:00 | 127 | 66 | 9:57:05 | 62 | 9:03:03 | 66 | 67 | 9:06:02 | 53 | 9:58:01 | 57.23 | 0 | 7.9 | 29 | 69 | 66 | 68 | 63 | 64 |
| 05/07/2026 | 11:00:00 | 127 | 67 | 10:50:05 | 64 | 10:06:02 | 66 | 60 | 10:24:03 | 47 | 10:26:03 | 49.16 | 0 | 7.7 | 9 | 78 | 70 | 72 | 65 | 66 |
| 05/07/2026 | 12:00:00 | 127 | 68 | 11:41:02 | 66 | 11:05:05 | 67 | 56 | 11:08:00 | 45 | 11:26:04 | 46.43 | 0 | 7.0 | 10 | 81 | 73 | 74 | 67 | 68 |
| 05/07/2026 | 13:00:00 | 127 | 69 | 12:19:04 | 67 | 12:00:01 | 68 | 53 | 12:04:01 | 43 | 12:33:01 | 46.87 | 0 | 7.1 | 350 | 82 | 75 | 76 | 69 | 70 |
| 05/07/2026 | 14:00:00 | 127 | 69 | 13:55:00 | 68 | 13:06:02 | 69 | 55 | 13:16:03 | 44 | 13:04:05 | 51.59 | 0 | 6.3 | 329 | 61 | 76 | 76 | 70 | 71 |
| 05/07/2026 | 15:00:00 | 127 | 70 | 14:48:05 | 68 | 14:00:05 | 69 | 53 | 14:01:00 | 44 | 14:59:03 | 46.4 | 0 | 6.5 | 334 | 60 | 76 | 76 | 71 | 71 |
| 05/07/2026 | 16:00:00 | 127 | 70 | 15:17:03 | 68 | 16:00:00 | 68 | 51 | 15:07:03 | 41 | 15:51:04 | 43.61 | 0 | 6.0 | 323 | 44 | 75 | 74 | 71 | 72 |
| 05/07/2026 | 17:00:00 | 127 | 69 | 16:06:00 | 68 | 16:58:03 | 68 | 47 | 16:33:03 | 40 | 16:13:01 | 45.15 | 0 | 5.3 | 334 | 23 | 73 | 71 | 71 | 71 |
| 05/07/2026 | 18:00:00 | 127 | 68 | 17:00:02 | 65 | 18:00:00 | 65 | 61 | 18:00:00 | 46 | 17:01:04 | 61.39 | 0 | 4.6 | 335 | 10 | 70 | 68 | 70 | 70 |
| 05/07/2026 | 19:00:00 | 127 | 65 | 18:00:01 | 60 | 18:59:05 | 60 | 75 | 18:59:01 | 61 | 18:01:02 | 75.25 | 0 | 3.3 | 355 | 2 | 67 | 66 | 69 | 68 |
| 05/07/2026 | 20:00:00 | 127 | 60 | 19:00:01 | 57 | 20:00:00 | 57 | 83 | 20:00:00 | 75 | 19:00:01 | 83.1 | 0 | 3.3 | 12 | 0 | 65 | 64 | 67 | 67 |
| 05/07/2026 | 21:00:00 | 127 | 57 | 20:00:02 | 55 | 20:44:02 | 56 | 87 | 20:45:04 | 81 | 20:26:04 | 86.3 | 0 | 2.1 | 2 | 0 | 63 | 62 | 66 | 66 |
| 05/07/2026 | 22:00:00 | 127 | 56 | 21:01:03 | 53 | 21:53:01 | 53 | 93 | 21:59:02 | 86 | 21:04:01 | 92.8 | 0 | 0.7 | 359 | 0 | 62 | 61 | 65 | 64 |
| 05/07/2026 | 23:00:00 | 127 | 53 | 22:06:05 | 52 | 22:54:04 | 52 | 94 | 22:59:05 | 93 | 22:12:01 | 94.2 | 0 | 0.5 | 350 | 0 | 61 | 60 | 64 | 64 |
| 05/08/2026 | 0:00:00 | 128 | 53 | 23:22:00 | 51 | 23:49:04 | 52 | 95 | 23:33:02 | 93 | 23:48:04 | 93.9 | 0 | 0.7 | 316 | 0 | 60 | 59 | 63 | 63 |
| 05/08/2026 | 1:00:00 | 128 | 52 | 0:51:05 | 51 | 0:16:04 | 52 | 95 | 0:26:03 | 92 | 0:54:04 | 92.4 | 0 | 1.2 | 340 | 0 | 59 | 58 | 62 | 62 |
| 05/08/2026 | 2:00:00 | 128 | 52 | 1:00:02 | 50 | 1:57:00 | 50 | 94 | 1:13:01 | 92 | 1:02:05 | 93.1 | 0 | 1.8 | 341 | 0 | 58 | 58 | 62 | 61 |
| 05/08/2026 | 3:00:00 | 128 | 50 | 2:03:03 | 48 | 2:58:03 | 48 | 95 | 3:00:00 | 91 | 2:21:03 | 94.7 | 0 | 1.0 | 339 | 0 | 57 | 57 | 61 | 61 |
| 05/08/2026 | 4:00:00 | 128 | 49 | 3:58:01 | 48 | 3:00:01 | 49 | 96 | 3:27:04 | 94 | 4:00:00 | 94 | 0 | 1.6 | 350 | 0 | 56 | 56 | 60 | 60 |
| 05/08/2026 | 5:00:00 | 128 | 49 | 4:00:01 | 47 | 4:59:04 | 47 | 95 | 4:24:02 | 93 | 4:06:01 | 94 | 0 | 1.2 | 355 | 0 | 55 | 55 | 59 | 59 |
| 05/08/2026 | 6:00:00 | 128 | 52 | 6:00:00 | 46 | 5:05:00 | 52 | 95 | 5:28:01 | 90 | 5:59:00 | 90.7 | 0 | 1.0 | 303 | 7 | 55 | 55 | 59 | 59 |
| 05/08/2026 | 7:00:00 | 128 | 57 | 6:59:05 | 52 | 6:00:01 | 57 | 91 | 6:00:01 | 85 | 6:22:02 | 87.9 | 0 | 2.8 | 172 | 19 | 56 | 57 | 58 | 59 |
| 05/08/2026 | 8:00:00 | 128 | 65 | 8:00:00 | 57 | 7:00:01 | 65 | 88 | 7:00:03 | 59 | 7:58:03 | 62.85 | 0 | 4.8 | 126 | 37 | 59 | 61 | 59 | 60 |
| 05/08/2026 | 9:00:00 | 128 | 68 | 8:58:02 | 64 | 8:07:03 | 68 | 62 | 8:21:00 | 54 | 8:58:04 | 54.01 | 0 | 6.8 | 132 | 45 | 63 | 65 | 61 | 61 |
| 05/08/2026 | 10:00:00 | 128 | 71 | 9:59:02 | 67 | 9:01:01 | 71 | 56 | 9:11:01 | 45 | 9:59:04 | 45.4 | 0 | 7.4 | 127 | 70 | 67 | 69 | 62 | 64 |
| 05/08/2026 | 11:00:00 | 128 | 75 | 10:58:02 | 70 | 10:02:02 | 74 | 49 | 10:04:01 | 39 | 10:59:01 | 39.66 | 0 | 6.1 | 151 | 74 | 71 | 73 | 65 | 66 |
| 05/08/2026 | 12:00:00 | 128 | 75 | 12:00:00 | 72 | 11:50:00 | 75 | 47 | 11:50:03 | 39 | 11:20:03 | 42.83 | 0 | 6.3 | 165 | 73 | 74 | 75 | 67 | 68 |
| 05/08/2026 | 13:00:00 | 128 | 77 | 12:37:04 | 75 | 12:20:05 | 75 | 47 | 12:59:04 | 37 | 12:07:05 | 44.59 | 0 | 7.4 | 176 | 79 | 76 | 77 | 69 | 70 |
| 05/08/2026 | 14:00:00 | 128 | 77 | 13:24:04 | 75 | 13:01:02 | 76 | 46 | 13:54:05 | 41 | 13:28:05 | 44.84 | 0 | 8.1 | 186 | 76 | 78 | 78 | 71 | 72 |
| 05/08/2026 | 15:00:00 | 128 | 78 | 14:24:03 | 76 | 15:00:00 | 76 | 46 | 14:55:05 | 39 | 14:25:02 | 44.48 | 0 | 9.1 | 180 | 65 | 77 | 77 | 72 | 72 |
| 05/08/2026 | 16:00:00 | 128 | 77 | 15:17:01 | 75 | 15:37:04 | 76 | 52 | 15:38:00 | 42 | 15:12:02 | 47.69 | 0 | 9.2 | 188 | 46 | 76 | 76 | 72 | 72 |
| 05/08/2026 | 17:00:00 | 128 | 76 | 16:04:02 | 74 | 16:50:00 | 74 | 52 | 16:59:05 | 46 | 16:19:05 | 52.2 | 0 | 9.1 | 189 | 34 | 75 | 74 | 72 | 72 |
| 05/08/2026 | 18:00:00 | 128 | 74 | 17:00:04 | 70 | 17:59:02 | 70 | 61 | 18:00:00 | 51 | 17:02:00 | 60.56 | 0 | 8.6 | 168 | 16 | 72 | 71 | 72 | 71 |
| 05/08/2026 | 19:00:00 | 128 | 70 | 18:00:02 | 65 | 19:00:00 | 65 | 73 | 19:00:00 | 61 | 18:01:02 | 73.39 | 0 | 4.6 | 177 | 1 | 69 | 68 | 71 | 70 |
| 05/08/2026 | 20:00:00 | 128 | 65 | 19:00:01 | 59 | 19:54:05 | 60 | 89 | 19:59:02 | 73 | 19:00:01 | 88.4 | 0 | 2.0 | 161 | 0 | 67 | 66 | 69 | 68 |
| 05/08/2026 | 21:00:00 | 128 | 60 | 20:00:01 | 58 | 21:00:00 | 58 | 91 | 20:53:05 | 88 | 20:13:05 | 90.3 | 0 | 2.3 | 150 | 0 | 65 | 64 | 68 | 67 |
| 05/08/2026 | 22:00:00 | 128 | 58 | 21:00:01 | 57 | 21:15:00 | 57 | 92 | 21:18:01 | 90 | 21:01:05 | 91.5 | 0 | 2.0 | 144 | 0 | 63 | 63 | 66 | 66 |
| 05/08/2026 | 23:00:00 | 128 | 58 | 22:11:00 | 55 | 22:58:04 | 55 | 93 | 23:00:00 | 90 | 22:14:01 | 92.8 | 0 | 1.4 | 189 | 0 | 62 | 62 | 65 | 65 |
| 05/09/2026 | 0:00:00 | 129 | 56 | 23:04:03 | 54 | 23:44:00 | 54 | 95 | 23:58:01 | 93 | 23:00:01 | 95.3 | 0 | 1.2 | 139 | 0 | 61 | 61 | 65 | 64 |
| 05/09/2026 | 1:00:00 | 129 | 56 | 0:55:04 | 54 | 0:13:03 | 56 | 97 | 0:23:02 | 95 | 0:00:02 | 95.6 | 0 | 3.0 | 141 | 0 | 60 | 60 | 64 | 63 |
| 05/09/2026 | 2:00:00 | 129 | 56 | 2:00:00 | 56 | 1:25:02 | 56 | 96 | 2:00:00 | 95 | 1:23:01 | 95.9 | 0 | 3.5 | 135 | 0 | 60 | 60 | 63 | 63 |
| 05/09/2026 | 3:00:00 | 129 | 57 | 2:54:01 | 56 | 2:39:04 | 56 | 97 | 2:50:03 | 96 | 2:11:02 | 96.2 | 0 | 2.5 | 121 | 0 | 60 | 59 | 63 | 62 |
| 05/09/2026 | 4:00:00 | 129 | 57 | 3:14:00 | 56 | 3:07:04 | 56 | 97 | 3:56:02 | 96 | 3:20:02 | 96.8 | 0 | 1.6 | 61 | 0 | 59 | 59 | 62 | 62 |
| 05/09/2026 | 5:00:00 | 129 | 56 | 4:05:01 | 55 | 4:58:01 | 55 | 98 | 4:42:04 | 97 | 4:16:02 | 97.5 | 0 | 1.1 | 77 | 0 | 59 | 59 | 62 | 62 |
| 05/09/2026 | 6:00:00 | 129 | 58 | 6:00:00 | 54 | 5:22:05 | 58 | 99 | 5:55:05 | 97 | 5:11:02 | 98.4 | 0 | 1.3 | 154 | 5 | 59 | 59 | 62 | 61 |
| 05/09/2026 | 7:00:00 | 129 | 64 | 6:59:00 | 59 | 6:00:01 | 64 | 98 | 6:01:01 | 92 | 7:00:00 | 92.2 | 0 | 3.5 | 161 | 18 | 60 | 61 | 61 | 62 |
| 05/09/2026 | 8:00:00 | 129 | 68 | 7:51:05 | 64 | 7:00:01 | 68 | 92 | 7:00:04 | 83 | 7:56:04 | 84.5 | 0 | 3.1 | 192 | 34 | 63 | 66 | 62 | 63 |
| 05/09/2026 | 9:00:00 | 129 | 72 | 9:00:00 | 68 | 8:00:02 | 72 | 85 | 8:02:00 | 75 | 8:55:02 | 75.59 | 0 | 3.4 | 199 | 53 | 68 | 71 | 64 | 65 |
| 05/09/2026 | 10:00:00 | 129 | 76 | 9:47:01 | 72 | 9:00:01 | 76 | 76 | 9:02:00 | 62 | 9:47:03 | 66.07 | 0 | 3.6 | 205 | 68 | 73 | 75 | 66 | 68 |
| 05/09/2026 | 11:00:00 | 129 | 77 | 10:54:01 | 74 | 10:16:05 | 77 | 67 | 10:19:05 | 58 | 10:58:02 | 59.14 | 0 | 3.4 | 298 | 70 | 77 | 79 | 69 | 70 |
| 05/09/2026 | 12:00:00 | 129 | 80 | 11:57:04 | 77 | 11:06:02 | 79 | 61 | 11:03:02 | 53 | 11:58:05 | 53.44 | 0 | 2.8 | 325 | 80 | 81 | 83 | 72 | 73 |
| 05/09/2026 | 13:00:00 | 129 | 83 | 12:59:02 | 78 | 12:35:02 | 82 | 60 | 12:36:05 | 51 | 12:27:01 | 52.29 | 0 | 4.3 | 211 | 67 | 83 | 83 | 74 | 75 |
| 05/09/2026 | 14:00:00 | 129 | 84 | 13:25:05 | 80 | 13:06:00 | 82 | 58 | 13:10:01 | 50 | 13:49:01 | 52.01 | 0 | 5.4 | 214 | 67 | 84 | 84 | 76 | 77 |
| 05/09/2026 | 15:00:00 | 129 | 84 | 14:11:01 | 81 | 14:34:01 | 82 | 56 | 14:27:02 | 50 | 14:05:03 | 52.05 | 0 | 4.9 | 228 | 63 | 85 | 85 | 77 | 78 |
| 05/09/2026 | 16:00:00 | 129 | 84 | 15:58:05 | 80 | 15:30:03 | 84 | 57 | 15:32:05 | 50 | 15:59:01 | 51.1 | 0 | 3.5 | 205 | 41 | 84 | 84 | 78 | 78 |
| 05/09/2026 | 17:00:00 | 129 | 84 | 16:03:02 | 80 | 16:28:05 | 82 | 56 | 16:30:03 | 49 | 16:03:05 | 51.84 | 0 | 4.1 | 163 | 26 | 83 | 81 | 78 | 78 |
| 05/09/2026 | 18:00:00 | 129 | 83 | 17:02:02 | 78 | 17:43:05 | 79 | 63 | 17:44:05 | 51 | 17:00:01 | 59.94 | 0 | 3.3 | 168 | 10 | 80 | 78 | 78 | 77 |
| 05/09/2026 | 19:00:00 | 129 | 79 | 18:00:02 | 72 | 18:59:03 | 72 | 76 | 19:00:00 | 60 | 18:01:02 | 76.33 | 0 | 0.8 | 116 | 2 | 77 | 75 | 76 | 76 |
| 05/09/2026 | 20:00:00 | 129 | 73 | 19:00:03 | 68 | 20:00:00 | 68 | 87 | 20:00:00 | 76 | 19:01:02 | 86.9 | 0 | 0.6 | 50 | 0 | 74 | 73 | 75 | 74 |
| 05/09/2026 | 21:00:00 | 129 | 68 | 20:00:01 | 67 | 20:44:02 | 67 | 92 | 20:52:02 | 87 | 20:00:01 | 90.5 | 0 | 1.0 | 8 | 0 | 72 | 71 | 74 | 73 |
| 05/09/2026 | 22:00:00 | 129 | 68 | 21:40:04 | 67 | 21:22:04 | 67 | 90 | 21:00:01 | 87 | 21:41:00 | 88.2 | 0 | 1.7 | 130 | 0 | 71 | 70 | 72 | 72 |
| 05/09/2026 | 23:00:00 | 129 | 67 | 22:00:01 | 66 | 23:00:00 | 66 | 91 | 22:38:05 | 88 | 22:00:05 | 90.5 | 0 | 1.9 | 133 | 0 | 70 | 69 | 71 | 71 |
| 05/10/2026 | 0:00:00 | 130 | 66 | 23:00:01 | 64 | 23:43:03 | 65 | 94 | 23:49:02 | 90 | 23:02:03 | 93.1 | 0 | 1.9 | 129 | 0 | 68 | 68 | 71 | 70 |
| 05/10/2026 | 1:00:00 | 130 | 65 | 0:35:03 | 63 | 0:50:02 | 63 | 95 | 1:00:00 | 93 | 0:45:04 | 94.8 | 0 | 1.2 | 58 | 0 | 67 | 67 | 70 | 69 |
| 05/10/2026 | 2:00:00 | 130 | 63 | 1:00:03 | 61 | 1:58:02 | 61 | 96 | 2:00:00 | 95 | 1:00:01 | 96.3 | 0 | 0.9 | 13 | 0 | 67 | 66 | 69 | 69 |
| 05/10/2026 | 3:00:00 | 130 | 62 | 2:07:04 | 60 | 2:59:03 | 60 | 97 | 2:47:02 | 96 | 2:00:01 | 96.8 | 0 | 0.8 | 15 | 0 | 66 | 65 | 68 | 68 |
| 05/10/2026 | 4:00:00 | 130 | 61 | 3:32:00 | 60 | 3:54:01 | 60 | 97 | 3:31:05 | 97 | 3:07:02 | 97.1 | 0 | 0.5 | 320 | 0 | 65 | 65 | 68 | 67 |
| Average | 65.12 | 62.58 | 63.83 | 76.98 | 71.07 | 74.04 | 0 | 5.35 | 20 | 67.37 | 67.37 | 67.17 | 67.17 | |||||||
| Total | 0.59 |